sensor_id;sensor_type;location;lat;lon;timestamp;P1;durP1;ratioP1;P2;durP2;ratioP2
15273;SDS011;7738;49.532;11.156;2023-01-26T00:00:11;34.80;;;14.07;;
15273;SDS011;7738;49.532;11.156;2023-01-26T00:02:45;31.20;;;13.10;;
15273;SDS011;7738;49.532;11.156;2023-01-26T00:05:15;38.40;;;13.67;;
15273;SDS011;7738;49.532;11.156;2023-01-26T00:07:45;31.23;;;12.70;;
15273;SDS011;7738;49.532;11.156;2023-01-26T00:10:15;37.43;;;13.53;;
15273;SDS011;7738;49.532;11.156;2023-01-26T00:12:46;29.30;;;12.93;;
15273;SDS011;7738;49.532;11.156;2023-01-26T00:15:16;30.60;;;13.77;;
15273;SDS011;7738;49.532;11.156;2023-01-26T00:17:49;31.53;;;12.83;;
15273;SDS011;7738;49.532;11.156;2023-01-26T00:20:19;27.93;;;12.33;;
15273;SDS011;7738;49.532;11.156;2023-01-26T00:22:49;31.30;;;12.43;;
15273;SDS011;7738;49.532;11.156;2023-01-26T00:25:20;28.10;;;11.87;;
15273;SDS011;7738;49.532;11.156;2023-01-26T00:27:50;29.70;;;13.10;;
15273;SDS011;7738;49.532;11.156;2023-01-26T00:30:21;28.73;;;11.87;;
15273;SDS011;7738;49.532;11.156;2023-01-26T00:32:54;34.97;;;12.80;;
15273;SDS011;7738;49.532;11.156;2023-01-26T00:35:24;26.80;;;11.53;;
15273;SDS011;7738;49.532;11.156;2023-01-26T00:37:55;26.40;;;12.27;;
15273;SDS011;7738;49.532;11.156;2023-01-26T00:40:25;30.07;;;11.43;;
15273;SDS011;7738;49.532;11.156;2023-01-26T00:42:55;25.70;;;11.20;;
15273;SDS011;7738;49.532;11.156;2023-01-26T00:45:26;29.40;;;14.70;;
15273;SDS011;7738;49.532;11.156;2023-01-26T00:47:59;32.00;;;15.70;;
15273;SDS011;7738;49.532;11.156;2023-01-26T00:50:29;25.17;;;12.03;;
15273;SDS011;7738;49.532;11.156;2023-01-26T00:52:59;31.93;;;14.43;;
15273;SDS011;7738;49.532;11.156;2023-01-26T00:55:29;27.97;;;12.73;;
15273;SDS011;7738;49.532;11.156;2023-01-26T00:58:00;28.30;;;12.00;;
15273;SDS011;7738;49.532;11.156;2023-01-26T01:00:32;36.03;;;16.20;;
15273;SDS011;7738;49.532;11.156;2023-01-26T01:03:05;27.03;;;12.80;;
15273;SDS011;7738;49.532;11.156;2023-01-26T01:05:36;28.65;;;11.60;;
15273;SDS011;7738;49.532;11.156;2023-01-26T01:08:06;30.97;;;12.13;;
15273;SDS011;7738;49.532;11.156;2023-01-26T01:10:36;25.70;;;11.60;;
15273;SDS011;7738;49.532;11.156;2023-01-26T01:13:07;29.50;;;13.47;;
15273;SDS011;7738;49.532;11.156;2023-01-26T01:15:38;30.87;;;11.70;;
15273;SDS011;7738;49.532;11.156;2023-01-26T01:18:11;27.10;;;10.67;;
15273;SDS011;7738;49.532;11.156;2023-01-26T01:20:41;26.43;;;11.20;;
15273;SDS011;7738;49.532;11.156;2023-01-26T01:23:11;29.13;;;12.57;;
15273;SDS011;7738;49.532;11.156;2023-01-26T01:25:42;30.63;;;11.33;;
15273;SDS011;7738;49.532;11.156;2023-01-26T01:28:12;30.07;;;13.03;;
15273;SDS011;7738;49.532;11.156;2023-01-26T01:30:42;27.57;;;11.20;;
15273;SDS011;7738;49.532;11.156;2023-01-26T01:33:15;28.77;;;11.33;;
15273;SDS011;7738;49.532;11.156;2023-01-26T01:35:54;30.07;;;10.97;;
15273;SDS011;7738;49.532;11.156;2023-01-26T01:38:25;31.37;;;11.60;;
15273;SDS011;7738;49.532;11.156;2023-01-26T01:40:55;24.77;;;10.17;;
15273;SDS011;7738;49.532;11.156;2023-01-26T01:43:26;28.43;;;11.20;;
15273;SDS011;7738;49.532;11.156;2023-01-26T01:45:57;19.70;;;9.87;;
15273;SDS011;7738;49.532;11.156;2023-01-26T01:48:33;30.17;;;10.70;;
15273;SDS011;7738;49.532;11.156;2023-01-26T01:51:05;28.70;;;11.30;;
15273;SDS011;7738;49.532;11.156;2023-01-26T01:53:38;25.37;;;11.73;;
15273;SDS011;7738;49.532;11.156;2023-01-26T01:56:11;27.23;;;11.73;;
15273;SDS011;7738;49.532;11.156;2023-01-26T01:58:44;32.95;;;11.55;;
15273;SDS011;7738;49.532;11.156;2023-01-26T02:01:15;26.63;;;11.50;;
15273;SDS011;7738;49.532;11.156;2023-01-26T02:03:49;35.67;;;13.90;;
15273;SDS011;7738;49.532;11.156;2023-01-26T02:06:21;48.60;;;17.87;;
15273;SDS011;7738;49.532;11.156;2023-01-26T02:08:57;39.93;;;13.00;;
15273;SDS011;7738;49.532;11.156;2023-01-26T02:11:29;25.60;;;10.40;;
15273;SDS011;7738;49.532;11.156;2023-01-26T02:16:33;22.90;;;9.47;;
15273;SDS011;7738;49.532;11.156;2023-01-26T02:19:10;23.83;;;10.43;;
15273;SDS011;7738;49.532;11.156;2023-01-26T02:21:48;25.33;;;11.43;;
15273;SDS011;7738;49.532;11.156;2023-01-26T02:24:21;21.70;;;10.10;;
15273;SDS011;7738;49.532;11.156;2023-01-26T02:27:00;26.33;;;10.93;;
15273;SDS011;7738;49.532;11.156;2023-01-26T02:29:32;24.90;;;10.27;;
15273;SDS011;7738;49.532;11.156;2023-01-26T02:32:02;24.77;;;10.57;;
15273;SDS011;7738;49.532;11.156;2023-01-26T02:34:32;31.87;;;10.73;;
15273;SDS011;7738;49.532;11.156;2023-01-26T02:37:03;30.33;;;10.63;;
15273;SDS011;7738;49.532;11.156;2023-01-26T02:39:37;24.43;;;10.50;;
15273;SDS011;7738;49.532;11.156;2023-01-26T02:42:13;24.17;;;10.67;;
15273;SDS011;7738;49.532;11.156;2023-01-26T02:44:55;29.20;;;11.90;;
15273;SDS011;7738;49.532;11.156;2023-01-26T02:47:27;26.93;;;11.97;;
15273;SDS011;7738;49.532;11.156;2023-01-26T02:49:57;27.50;;;11.80;;
15273;SDS011;7738;49.532;11.156;2023-01-26T02:52:27;28.20;;;12.30;;
15273;SDS011;7738;49.532;11.156;2023-01-26T02:55:05;26.03;;;11.80;;
15273;SDS011;7738;49.532;11.156;2023-01-26T02:57:54;30.93;;;11.93;;
15273;SDS011;7738;49.532;11.156;2023-01-26T03:00:26;23.47;;;9.63;;
15273;SDS011;7738;49.532;11.156;2023-01-26T03:02:58;34.13;;;10.43;;
15273;SDS011;7738;49.532;11.156;2023-01-26T03:05:29;29.37;;;12.13;;
15273;SDS011;7738;49.532;11.156;2023-01-26T03:08:00;26.13;;;11.63;;
15273;SDS011;7738;49.532;11.156;2023-01-26T03:10:35;22.87;;;9.77;;
15273;SDS011;7738;49.532;11.156;2023-01-26T03:13:08;28.50;;;10.50;;
15273;SDS011;7738;49.532;11.156;2023-01-26T03:15:38;24.27;;;10.30;;
15273;SDS011;7738;49.532;11.156;2023-01-26T03:18:20;26.47;;;10.07;;
15273;SDS011;7738;49.532;11.156;2023-01-26T03:21:04;28.93;;;11.50;;
15273;SDS011;7738;49.532;11.156;2023-01-26T03:23:49;24.57;;;10.70;;
15273;SDS011;7738;49.532;11.156;2023-01-26T03:26:32;24.23;;;10.50;;
15273;SDS011;7738;49.532;11.156;2023-01-26T03:29:19;26.17;;;9.73;;
15273;SDS011;7738;49.532;11.156;2023-01-26T03:31:50;26.05;;;10.65;;
15273;SDS011;7738;49.532;11.156;2023-01-26T03:34:20;26.30;;;10.97;;
15273;SDS011;7738;49.532;11.156;2023-01-26T03:36:51;23.80;;;10.33;;
15273;SDS011;7738;49.532;11.156;2023-01-26T03:39:23;25.63;;;10.93;;
15273;SDS011;7738;49.532;11.156;2023-01-26T03:42:06;28.80;;;12.00;;
15273;SDS011;7738;49.532;11.156;2023-01-26T03:44:51;28.77;;;11.83;;
15273;SDS011;7738;49.532;11.156;2023-01-26T03:47:36;30.30;;;10.40;;
15273;SDS011;7738;49.532;11.156;2023-01-26T03:50:19;34.97;;;13.23;;
15273;SDS011;7738;49.532;11.156;2023-01-26T03:53:09;24.67;;;11.60;;
15273;SDS011;7738;49.532;11.156;2023-01-26T03:55:54;22.60;;;10.10;;
15273;SDS011;7738;49.532;11.156;2023-01-26T03:58:36;33.97;;;11.77;;
15273;SDS011;7738;49.532;11.156;2023-01-26T04:01:09;35.30;;;12.87;;
15273;SDS011;7738;49.532;11.156;2023-01-26T04:03:49;27.30;;;12.03;;
15273;SDS011;7738;49.532;11.156;2023-01-26T04:06:32;33.37;;;12.13;;
15273;SDS011;7738;49.532;11.156;2023-01-26T04:09:16;30.03;;;12.87;;
15273;SDS011;7738;49.532;11.156;2023-01-26T04:11:46;36.53;;;14.50;;
15273;SDS011;7738;49.532;11.156;2023-01-26T04:14:17;31.40;;;11.43;;
15273;SDS011;7738;49.532;11.156;2023-01-26T04:17:18;24.80;;;11.33;;
15273;SDS011;7738;49.532;11.156;2023-01-26T04:20:00;27.77;;;11.00;;
15273;SDS011;7738;49.532;11.156;2023-01-26T04:22:43;31.37;;;10.93;;
15273;SDS011;7738;49.532;11.156;2023-01-26T04:25:15;29.27;;;10.87;;
15273;SDS011;7738;49.532;11.156;2023-01-26T04:27:46;32.23;;;10.43;;
15273;SDS011;7738;49.532;11.156;2023-01-26T04:30:17;29.20;;;12.60;;
15273;SDS011;7738;49.532;11.156;2023-01-26T04:32:52;25.53;;;10.93;;
15273;SDS011;7738;49.532;11.156;2023-01-26T04:35:22;25.95;;;11.18;;
15273;SDS011;7738;49.532;11.156;2023-01-26T04:37:52;40.07;;;15.97;;
15273;SDS011;7738;49.532;11.156;2023-01-26T04:40:22;38.60;;;15.93;;
15273;SDS011;7738;49.532;11.156;2023-01-26T04:42:53;45.70;;;17.57;;
15273;SDS011;7738;49.532;11.156;2023-01-26T04:45:23;42.00;;;14.53;;
15273;SDS011;7738;49.532;11.156;2023-01-26T04:47:56;42.07;;;16.97;;
15273;SDS011;7738;49.532;11.156;2023-01-26T04:50:26;41.03;;;15.60;;
15273;SDS011;7738;49.532;11.156;2023-01-26T04:52:56;45.37;;;17.53;;
15273;SDS011;7738;49.532;11.156;2023-01-26T04:55:27;38.47;;;15.27;;
15273;SDS011;7738;49.532;11.156;2023-01-26T04:57:57;41.53;;;17.20;;
15273;SDS011;7738;49.532;11.156;2023-01-26T05:00:29;45.93;;;14.53;;
15273;SDS011;7738;49.532;11.156;2023-01-26T05:03:03;51.17;;;16.97;;
15273;SDS011;7738;49.532;11.156;2023-01-26T05:05:36;33.67;;;14.10;;
15273;SDS011;7738;49.532;11.156;2023-01-26T05:08:07;47.60;;;17.03;;
15273;SDS011;7738;49.532;11.156;2023-01-26T05:10:38;37.67;;;14.43;;
15273;SDS011;7738;49.532;11.156;2023-01-26T05:13:21;40.63;;;15.50;;
15273;SDS011;7738;49.532;11.156;2023-01-26T05:16:03;34.73;;;15.93;;
15273;SDS011;7738;49.532;11.156;2023-01-26T05:18:51;40.47;;;15.57;;
15273;SDS011;7738;49.532;11.156;2023-01-26T05:21:36;29.43;;;12.80;;
15273;SDS011;7738;49.532;11.156;2023-01-26T05:24:07;36.57;;;15.83;;
15273;SDS011;7738;49.532;11.156;2023-01-26T05:26:55;40.27;;;15.80;;
15273;SDS011;7738;49.532;11.156;2023-01-26T05:29:39;34.40;;;13.47;;
15273;SDS011;7738;49.532;11.156;2023-01-26T05:32:10;36.97;;;13.53;;
15273;SDS011;7738;49.532;11.156;2023-01-26T05:34:43;35.77;;;14.67;;
15273;SDS011;7738;49.532;11.156;2023-01-26T05:37:13;33.07;;;13.63;;
15273;SDS011;7738;49.532;11.156;2023-01-26T05:39:44;26.90;;;13.10;;
15273;SDS011;7738;49.532;11.156;2023-01-26T05:42:15;32.13;;;12.10;;
15273;SDS011;7738;49.532;11.156;2023-01-26T05:45:11;30.73;;;13.13;;
15273;SDS011;7738;49.532;11.156;2023-01-26T05:47:43;34.37;;;12.27;;
15273;SDS011;7738;49.532;11.156;2023-01-26T05:50:16;31.00;;;13.57;;
15273;SDS011;7738;49.532;11.156;2023-01-26T05:53:07;36.73;;;13.10;;
15273;SDS011;7738;49.532;11.156;2023-01-26T05:55:37;34.33;;;13.80;;
15273;SDS011;7738;49.532;11.156;2023-01-26T05:58:08;27.23;;;12.63;;
15273;SDS011;7738;49.532;11.156;2023-01-26T06:00:39;34.77;;;12.40;;
15273;SDS011;7738;49.532;11.156;2023-01-26T06:03:16;34.60;;;14.57;;
15273;SDS011;7738;49.532;11.156;2023-01-26T06:05:53;29.53;;;12.60;;
15273;SDS011;7738;49.532;11.156;2023-01-26T06:08:34;31.93;;;14.03;;
15273;SDS011;7738;49.532;11.156;2023-01-26T06:11:39;35.27;;;11.77;;
15273;SDS011;7738;49.532;11.156;2023-01-26T06:14:38;36.20;;;13.63;;
15273;SDS011;7738;49.532;11.156;2023-01-26T06:17:09;28.50;;;11.43;;
15273;SDS011;7738;49.532;11.156;2023-01-26T06:19:39;32.20;;;13.37;;
15273;SDS011;7738;49.532;11.156;2023-01-26T06:22:13;32.30;;;13.23;;
15273;SDS011;7738;49.532;11.156;2023-01-26T06:24:47;29.93;;;11.87;;
15273;SDS011;7738;49.532;11.156;2023-01-26T06:27:18;28.87;;;11.47;;
15273;SDS011;7738;49.532;11.156;2023-01-26T06:29:50;27.60;;;10.77;;
15273;SDS011;7738;49.532;11.156;2023-01-26T06:32:21;26.90;;;11.87;;
15273;SDS011;7738;49.532;11.156;2023-01-26T06:34:56;41.13;;;13.03;;
15273;SDS011;7738;49.532;11.156;2023-01-26T06:37:29;29.70;;;10.57;;
15273;SDS011;7738;49.532;11.156;2023-01-26T06:39:59;22.47;;;10.83;;
15273;SDS011;7738;49.532;11.156;2023-01-26T06:42:29;24.60;;;10.37;;
15273;SDS011;7738;49.532;11.156;2023-01-26T06:44:59;30.10;;;12.40;;
15273;SDS011;7738;49.532;11.156;2023-01-26T06:47:30;25.00;;;10.17;;
15273;SDS011;7738;49.532;11.156;2023-01-26T06:50:03;29.80;;;11.00;;
15273;SDS011;7738;49.532;11.156;2023-01-26T06:52:37;27.13;;;11.40;;
15273;SDS011;7738;49.532;11.156;2023-01-26T06:55:37;23.17;;;10.10;;
15273;SDS011;7738;49.532;11.156;2023-01-26T06:58:25;21.03;;;9.10;;
15273;SDS011;7738;49.532;11.156;2023-01-26T07:01:22;24.87;;;10.13;;
15273;SDS011;7738;49.532;11.156;2023-01-26T07:03:54;21.00;;;9.17;;
15273;SDS011;7738;49.532;11.156;2023-01-26T07:06:24;28.00;;;10.27;;
15273;SDS011;7738;49.532;11.156;2023-01-26T07:08:57;31.93;;;12.17;;
15273;SDS011;7738;49.532;11.156;2023-01-26T07:11:27;24.70;;;11.23;;
15273;SDS011;7738;49.532;11.156;2023-01-26T07:13:58;27.43;;;11.10;;
15273;SDS011;7738;49.532;11.156;2023-01-26T07:16:28;28.07;;;11.43;;
15273;SDS011;7738;49.532;11.156;2023-01-26T07:18:59;28.20;;;12.33;;
15273;SDS011;7738;49.532;11.156;2023-01-26T07:21:30;26.37;;;10.50;;
15273;SDS011;7738;49.532;11.156;2023-01-26T07:24:03;24.97;;;11.17;;
15273;SDS011;7738;49.532;11.156;2023-01-26T07:26:34;27.10;;;12.40;;
15273;SDS011;7738;49.532;11.156;2023-01-26T07:29:04;26.67;;;10.73;;
15273;SDS011;7738;49.532;11.156;2023-01-26T07:31:35;26.07;;;11.13;;
15273;SDS011;7738;49.532;11.156;2023-01-26T07:34:07;22.87;;;10.43;;
15273;SDS011;7738;49.532;11.156;2023-01-26T07:36:37;26.73;;;10.20;;
15273;SDS011;7738;49.532;11.156;2023-01-26T07:39:10;27.20;;;10.77;;
15273;SDS011;7738;49.532;11.156;2023-01-26T07:41:40;24.37;;;10.60;;
15273;SDS011;7738;49.532;11.156;2023-01-26T07:44:29;24.00;;;10.10;;
15273;SDS011;7738;49.532;11.156;2023-01-26T07:46:59;26.10;;;11.63;;
15273;SDS011;7738;49.532;11.156;2023-01-26T07:49:29;29.73;;;11.10;;
15273;SDS011;7738;49.532;11.156;2023-01-26T07:51:59;23.37;;;10.80;;
15273;SDS011;7738;49.532;11.156;2023-01-26T07:54:33;21.67;;;10.37;;
15273;SDS011;7738;49.532;11.156;2023-01-26T07:57:03;20.80;;;9.73;;
15273;SDS011;7738;49.532;11.156;2023-01-26T07:59:35;24.73;;;10.87;;
15273;SDS011;7738;49.532;11.156;2023-01-26T08:02:05;22.83;;;9.73;;
15273;SDS011;7738;49.532;11.156;2023-01-26T08:04:37;21.67;;;10.20;;
15273;SDS011;7738;49.532;11.156;2023-01-26T08:07:07;22.93;;;11.87;;
15273;SDS011;7738;49.532;11.156;2023-01-26T08:09:40;23.53;;;10.87;;
15273;SDS011;7738;49.532;11.156;2023-01-26T08:12:10;26.90;;;12.33;;
15273;SDS011;7738;49.532;11.156;2023-01-26T08:14:40;21.47;;;9.90;;
15273;SDS011;7738;49.532;11.156;2023-01-26T08:17:12;22.60;;;9.33;;
15273;SDS011;7738;49.532;11.156;2023-01-26T08:19:43;20.20;;;9.63;;
15273;SDS011;7738;49.532;11.156;2023-01-26T08:22:13;21.27;;;9.23;;
15273;SDS011;7738;49.532;11.156;2023-01-26T08:24:46;20.33;;;8.47;;
15273;SDS011;7738;49.532;11.156;2023-01-26T08:27:16;26.40;;;11.13;;
15273;SDS011;7738;49.532;11.156;2023-01-26T08:29:46;22.13;;;8.70;;
15273;SDS011;7738;49.532;11.156;2023-01-26T08:32:17;20.87;;;8.60;;
15273;SDS011;7738;49.532;11.156;2023-01-26T08:34:47;19.20;;;8.33;;
15273;SDS011;7738;49.532;11.156;2023-01-26T08:37:17;15.77;;;6.70;;
15273;SDS011;7738;49.532;11.156;2023-01-26T08:39:49;13.87;;;6.93;;
15273;SDS011;7738;49.532;11.156;2023-01-26T08:42:19;11.80;;;5.50;;
15273;SDS011;7738;49.532;11.156;2023-01-26T08:44:50;13.47;;;6.47;;
15273;SDS011;7738;49.532;11.156;2023-01-26T08:47:20;10.97;;;5.43;;
15273;SDS011;7738;49.532;11.156;2023-01-26T08:49:50;17.03;;;6.53;;
15273;SDS011;7738;49.532;11.156;2023-01-26T08:52:20;11.30;;;4.83;;
15273;SDS011;7738;49.532;11.156;2023-01-26T08:54:53;11.97;;;6.47;;
15273;SDS011;7738;49.532;11.156;2023-01-26T08:57:23;19.47;;;7.47;;
15273;SDS011;7738;49.532;11.156;2023-01-26T08:59:53;15.80;;;6.63;;
15273;SDS011;7738;49.532;11.156;2023-01-26T09:02:23;14.17;;;6.10;;
15273;SDS011;7738;49.532;11.156;2023-01-26T09:04:54;17.80;;;6.63;;
15273;SDS011;7738;49.532;11.156;2023-01-26T09:07:24;16.83;;;7.10;;
15273;SDS011;7738;49.532;11.156;2023-01-26T09:09:57;14.13;;;6.83;;
15273;SDS011;7738;49.532;11.156;2023-01-26T09:12:27;11.73;;;6.27;;
15273;SDS011;7738;49.532;11.156;2023-01-26T09:14:57;16.23;;;6.83;;
15273;SDS011;7738;49.532;11.156;2023-01-26T09:17:27;15.73;;;7.97;;
15273;SDS011;7738;49.532;11.156;2023-01-26T09:19:58;18.60;;;7.70;;
15273;SDS011;7738;49.532;11.156;2023-01-26T09:22:28;22.43;;;8.00;;
15273;SDS011;7738;49.532;11.156;2023-01-26T09:25:01;14.00;;;8.07;;
15273;SDS011;7738;49.532;11.156;2023-01-26T09:27:32;19.43;;;7.87;;
15273;SDS011;7738;49.532;11.156;2023-01-26T09:30:02;15.67;;;8.27;;
15273;SDS011;7738;49.532;11.156;2023-01-26T09:32:33;16.00;;;7.37;;
15273;SDS011;7738;49.532;11.156;2023-01-26T09:35:04;17.53;;;8.00;;
15273;SDS011;7738;49.532;11.156;2023-01-26T09:37:40;18.43;;;7.60;;
15273;SDS011;7738;49.532;11.156;2023-01-26T09:40:15;19.80;;;7.83;;
15273;SDS011;7738;49.532;11.156;2023-01-26T09:42:53;18.73;;;8.87;;
15273;SDS011;7738;49.532;11.156;2023-01-26T09:45:31;21.87;;;8.20;;
15273;SDS011;7738;49.532;11.156;2023-01-26T09:48:08;18.53;;;7.67;;
15273;SDS011;7738;49.532;11.156;2023-01-26T09:50:47;13.77;;;7.70;;
15273;SDS011;7738;49.532;11.156;2023-01-26T09:53:20;15.98;;;8.18;;
15273;SDS011;7738;49.532;11.156;2023-01-26T09:55:56;18.30;;;7.47;;
15273;SDS011;7738;49.532;11.156;2023-01-26T09:58:28;19.07;;;7.17;;
15273;SDS011;7738;49.532;11.156;2023-01-26T10:01:01;15.93;;;8.13;;
15273;SDS011;7738;49.532;11.156;2023-01-26T10:03:33;17.03;;;8.37;;
15273;SDS011;7738;49.532;11.156;2023-01-26T10:06:10;17.60;;;8.67;;
15273;SDS011;7738;49.532;11.156;2023-01-26T10:09:06;15.83;;;8.20;;
15273;SDS011;7738;49.532;11.156;2023-01-26T10:11:47;20.07;;;9.47;;
15273;SDS011;7738;49.532;11.156;2023-01-26T10:14:20;16.07;;;8.77;;
15273;SDS011;7738;49.532;11.156;2023-01-26T10:16:56;14.27;;;7.03;;
15273;SDS011;7738;49.532;11.156;2023-01-26T10:19:30;10.93;;;7.17;;
15273;SDS011;7738;49.532;11.156;2023-01-26T10:22:04;15.63;;;7.77;;
15273;SDS011;7738;49.532;11.156;2023-01-26T10:24:39;14.63;;;7.00;;
15273;SDS011;7738;49.532;11.156;2023-01-26T10:27:12;18.37;;;7.10;;
15273;SDS011;7738;49.532;11.156;2023-01-26T10:29:44;13.60;;;7.33;;
15273;SDS011;7738;49.532;11.156;2023-01-26T10:32:15;15.00;;;6.80;;
15273;SDS011;7738;49.532;11.156;2023-01-26T10:34:47;13.90;;;6.33;;
15273;SDS011;7738;49.532;11.156;2023-01-26T10:37:19;15.13;;;6.60;;
15273;SDS011;7738;49.532;11.156;2023-01-26T10:39:58;16.07;;;7.30;;
15273;SDS011;7738;49.532;11.156;2023-01-26T10:42:32;15.60;;;7.37;;
15273;SDS011;7738;49.532;11.156;2023-01-26T10:45:03;16.83;;;7.50;;
15273;SDS011;7738;49.532;11.156;2023-01-26T10:47:34;22.37;;;7.90;;
15273;SDS011;7738;49.532;11.156;2023-01-26T10:50:19;16.63;;;8.23;;
15273;SDS011;7738;49.532;11.156;2023-01-26T10:52:57;16.57;;;7.60;;
15273;SDS011;7738;49.532;11.156;2023-01-26T10:55:27;11.40;;;6.00;;
15273;SDS011;7738;49.532;11.156;2023-01-26T10:58:01;16.60;;;7.27;;
15273;SDS011;7738;49.532;11.156;2023-01-26T11:00:32;18.57;;;7.50;;
15273;SDS011;7738;49.532;11.156;2023-01-26T11:03:15;15.07;;;6.83;;
15273;SDS011;7738;49.532;11.156;2023-01-26T11:05:45;16.67;;;6.67;;
15273;SDS011;7738;49.532;11.156;2023-01-26T11:08:35;15.67;;;7.13;;
15273;SDS011;7738;49.532;11.156;2023-01-26T11:11:20;14.70;;;7.90;;
15273;SDS011;7738;49.532;11.156;2023-01-26T11:16:45;20.47;;;7.23;;
15273;SDS011;7738;49.532;11.156;2023-01-26T11:19:18;17.70;;;6.87;;
15273;SDS011;7738;49.532;11.156;2023-01-26T11:21:52;16.30;;;7.50;;
15273;SDS011;7738;49.532;11.156;2023-01-26T11:24:24;16.23;;;7.50;;
15273;SDS011;7738;49.532;11.156;2023-01-26T11:27:04;20.23;;;8.03;;
15273;SDS011;7738;49.532;11.156;2023-01-26T11:32:49;18.50;;;7.20;;
15273;SDS011;7738;49.532;11.156;2023-01-26T11:35:29;16.27;;;7.43;;
15273;SDS011;7738;49.532;11.156;2023-01-26T11:38:06;15.70;;;7.03;;
15273;SDS011;7738;49.532;11.156;2023-01-26T11:40:39;21.00;;;7.23;;
15273;SDS011;7738;49.532;11.156;2023-01-26T11:43:26;20.37;;;8.10;;
15273;SDS011;7738;49.532;11.156;2023-01-26T11:46:29;19.73;;;9.45;;
15273;SDS011;7738;49.532;11.156;2023-01-26T11:49:10;19.53;;;8.60;;
15273;SDS011;7738;49.532;11.156;2023-01-26T11:51:47;17.23;;;9.00;;
15273;SDS011;7738;49.532;11.156;2023-01-26T11:54:28;22.67;;;9.23;;
15273;SDS011;7738;49.532;11.156;2023-01-26T11:57:11;20.77;;;9.33;;
15273;SDS011;7738;49.532;11.156;2023-01-26T11:59:53;18.57;;;8.07;;
15273;SDS011;7738;49.532;11.156;2023-01-26T12:02:42;24.73;;;9.63;;
15273;SDS011;7738;49.532;11.156;2023-01-26T12:05:13;21.55;;;9.23;;
15273;SDS011;7738;49.532;11.156;2023-01-26T12:07:46;21.57;;;9.10;;
15273;SDS011;7738;49.532;11.156;2023-01-26T12:10:22;22.77;;;8.53;;
15273;SDS011;7738;49.532;11.156;2023-01-26T12:12:59;17.57;;;8.30;;
15273;SDS011;7738;49.532;11.156;2023-01-26T12:15:32;18.58;;;9.18;;
15273;SDS011;7738;49.532;11.156;2023-01-26T12:18:09;20.03;;;9.30;;
15273;SDS011;7738;49.532;11.156;2023-01-26T12:20:48;22.03;;;9.10;;
15273;SDS011;7738;49.532;11.156;2023-01-26T12:23:24;19.40;;;9.35;;
15273;SDS011;7738;49.532;11.156;2023-01-26T12:26:00;22.50;;;10.93;;
15273;SDS011;7738;49.532;11.156;2023-01-26T12:28:32;21.97;;;10.60;;
15273;SDS011;7738;49.532;11.156;2023-01-26T12:31:06;31.45;;;15.50;;
15273;SDS011;7738;49.532;11.156;2023-01-26T12:33:43;22.40;;;10.33;;
15273;SDS011;7738;49.532;11.156;2023-01-26T12:36:15;27.08;;;12.20;;
15273;SDS011;7738;49.532;11.156;2023-01-26T12:38:58;27.17;;;14.13;;
15273;SDS011;7738;49.532;11.156;2023-01-26T12:41:37;28.87;;;13.17;;
15273;SDS011;7738;49.532;11.156;2023-01-26T12:44:25;27.33;;;11.47;;
15273;SDS011;7738;49.532;11.156;2023-01-26T12:47:06;26.57;;;11.27;;
15273;SDS011;7738;49.532;11.156;2023-01-26T12:49:44;21.57;;;9.80;;
15273;SDS011;7738;49.532;11.156;2023-01-26T12:52:17;23.90;;;10.20;;
15273;SDS011;7738;49.532;11.156;2023-01-26T12:54:55;22.87;;;10.67;;
15273;SDS011;7738;49.532;11.156;2023-01-26T12:57:30;26.70;;;11.50;;
15273;SDS011;7738;49.532;11.156;2023-01-26T13:00:11;25.17;;;10.97;;
15273;SDS011;7738;49.532;11.156;2023-01-26T13:02:47;24.40;;;11.80;;
15273;SDS011;7738;49.532;11.156;2023-01-26T13:05:26;27.30;;;12.33;;
15273;SDS011;7738;49.532;11.156;2023-01-26T13:07:56;28.20;;;12.43;;
15273;SDS011;7738;49.532;11.156;2023-01-26T13:10:42;27.20;;;12.07;;
15273;SDS011;7738;49.532;11.156;2023-01-26T13:13:28;26.83;;;11.63;;
15273;SDS011;7738;49.532;11.156;2023-01-26T13:18:47;33.23;;;12.47;;
15273;SDS011;7738;49.532;11.156;2023-01-26T13:21:27;25.43;;;13.07;;
15273;SDS011;7738;49.532;11.156;2023-01-26T13:23:57;29.07;;;12.43;;
15273;SDS011;7738;49.532;11.156;2023-01-26T13:29:27;26.50;;;11.73;;
15273;SDS011;7738;49.532;11.156;2023-01-26T13:35:02;23.97;;;10.17;;
15273;SDS011;7738;49.532;11.156;2023-01-26T13:37:36;29.37;;;12.40;;
15273;SDS011;7738;49.532;11.156;2023-01-26T13:40:16;29.93;;;13.13;;
15273;SDS011;7738;49.532;11.156;2023-01-26T13:42:51;27.87;;;12.23;;
15273;SDS011;7738;49.532;11.156;2023-01-26T13:45:28;33.70;;;13.37;;
15273;SDS011;7738;49.532;11.156;2023-01-26T13:48:02;24.70;;;11.43;;
15273;SDS011;7738;49.532;11.156;2023-01-26T13:50:35;27.30;;;11.50;;
15273;SDS011;7738;49.532;11.156;2023-01-26T13:55:53;23.70;;;11.60;;
15273;SDS011;7738;49.532;11.156;2023-01-26T13:58:27;31.97;;;13.37;;
15273;SDS011;7738;49.532;11.156;2023-01-26T14:00:58;25.40;;;11.70;;
15273;SDS011;7738;49.532;11.156;2023-01-26T14:03:29;23.27;;;11.43;;
15273;SDS011;7738;49.532;11.156;2023-01-26T14:06:01;28.43;;;11.70;;
15273;SDS011;7738;49.532;11.156;2023-01-26T14:08:34;35.17;;;15.13;;
15273;SDS011;7738;49.532;11.156;2023-01-26T14:11:16;27.13;;;13.07;;
15273;SDS011;7738;49.532;11.156;2023-01-26T14:13:49;26.73;;;11.77;;
15273;SDS011;7738;49.532;11.156;2023-01-26T14:16:22;30.90;;;12.70;;
15273;SDS011;7738;49.532;11.156;2023-01-26T14:19:02;31.17;;;12.47;;
15273;SDS011;7738;49.532;11.156;2023-01-26T14:21:33;24.63;;;10.83;;
15273;SDS011;7738;49.532;11.156;2023-01-26T14:24:13;25.20;;;10.87;;
15273;SDS011;7738;49.532;11.156;2023-01-26T14:26:46;26.90;;;12.17;;
15273;SDS011;7738;49.532;11.156;2023-01-26T14:29:19;28.77;;;11.93;;
15273;SDS011;7738;49.532;11.156;2023-01-26T14:31:51;22.05;;;9.90;;
15273;SDS011;7738;49.532;11.156;2023-01-26T14:34:23;28.90;;;11.57;;
15273;SDS011;7738;49.532;11.156;2023-01-26T14:37:05;24.50;;;11.30;;
15273;SDS011;7738;49.532;11.156;2023-01-26T14:39:40;30.50;;;13.43;;
15273;SDS011;7738;49.532;11.156;2023-01-26T14:42:17;28.10;;;13.47;;
15273;SDS011;7738;49.532;11.156;2023-01-26T14:44:48;29.33;;;14.47;;
15273;SDS011;7738;49.532;11.156;2023-01-26T14:47:19;30.43;;;13.90;;
15273;SDS011;7738;49.532;11.156;2023-01-26T14:49:51;20.83;;;10.87;;
15273;SDS011;7738;49.532;11.156;2023-01-26T14:52:25;28.73;;;12.97;;
15273;SDS011;7738;49.532;11.156;2023-01-26T14:55:02;29.13;;;14.07;;
15273;SDS011;7738;49.532;11.156;2023-01-26T14:57:37;26.80;;;12.33;;
15273;SDS011;7738;49.532;11.156;2023-01-26T15:00:17;27.70;;;11.85;;
15273;SDS011;7738;49.532;11.156;2023-01-26T15:02:51;29.47;;;13.63;;
15273;SDS011;7738;49.532;11.156;2023-01-26T15:05:23;28.33;;;13.03;;
15273;SDS011;7738;49.532;11.156;2023-01-26T15:08:00;25.97;;;11.23;;
15273;SDS011;7738;49.532;11.156;2023-01-26T15:10:35;27.63;;;13.47;;
15273;SDS011;7738;49.532;11.156;2023-01-26T15:13:17;27.03;;;12.53;;
15273;SDS011;7738;49.532;11.156;2023-01-26T15:16:01;28.53;;;14.83;;
15273;SDS011;7738;49.532;11.156;2023-01-26T15:18:32;33.37;;;14.77;;
15273;SDS011;7738;49.532;11.156;2023-01-26T15:21:09;33.93;;;13.60;;
15273;SDS011;7738;49.532;11.156;2023-01-26T15:23:40;32.23;;;14.13;;
15273;SDS011;7738;49.532;11.156;2023-01-26T15:26:12;32.37;;;14.30;;
15273;SDS011;7738;49.532;11.156;2023-01-26T15:28:54;28.60;;;14.27;;